createdAt,value
2023-02-04T00:00:59.081Z,2.72
2023-02-04T00:03:25.865Z,3.90
2023-02-04T00:05:52.508Z,2.95
2023-02-04T00:08:19.135Z,3.00
2023-02-04T00:10:47.161Z,3.08
2023-02-04T00:13:13.811Z,2.95
2023-02-04T00:15:40.416Z,3.00
2023-02-04T00:18:07.123Z,3.50
2023-02-04T00:20:33.742Z,2.80
2023-02-04T00:23:00.407Z,3.88
2023-02-04T00:25:27.379Z,3.08
2023-02-04T00:27:55.408Z,2.90
2023-02-04T00:30:22.062Z,3.75
2023-02-04T00:32:48.665Z,3.38
2023-02-04T00:35:15.263Z,3.13
2023-02-04T00:37:42.147Z,3.40
2023-02-04T00:40:10.369Z,3.20
2023-02-04T00:42:38.832Z,3.33
2023-02-04T00:45:07.881Z,2.40
2023-02-04T00:47:34.542Z,3.83
2023-02-04T00:50:01.113Z,2.83
2023-02-04T00:52:27.960Z,2.90
2023-02-04T00:54:54.637Z,3.35
2023-02-04T00:57:22.232Z,4.07
2023-02-04T00:59:49.004Z,4.25
2023-02-04T01:02:18.739Z,3.50
2023-02-04T01:04:45.366Z,2.92
2023-02-04T01:07:11.934Z,3.53
2023-02-04T01:09:38.495Z,4.10
2023-02-04T01:12:05.163Z,3.17
2023-02-04T01:14:31.705Z,3.45
2023-02-04T01:16:58.427Z,4.20
2023-02-04T01:19:27.407Z,4.40
2023-02-04T01:21:54.224Z,3.45
2023-02-04T01:24:20.775Z,3.75
2023-02-04T01:27:06.196Z,3.42
2023-02-04T01:29:32.845Z,4.18
2023-02-04T01:31:59.521Z,4.70
2023-02-04T01:34:27.499Z,3.65
2023-02-04T01:36:54.172Z,3.55
2023-02-04T01:39:20.834Z,3.15
2023-02-04T01:41:47.567Z,4.32
2023-02-04T01:44:14.347Z,3.60
2023-02-04T01:46:41.215Z,3.55
2023-02-04T01:49:11.010Z,4.40
2023-02-04T01:51:39.465Z,3.42
2023-02-04T01:54:09.482Z,4.53
2023-02-04T01:56:36.045Z,3.53
2023-02-04T01:59:02.743Z,2.90
2023-02-04T02:01:37.542Z,4.97
2023-02-04T02:04:04.870Z,3.67
2023-02-04T02:06:33.592Z,3.38
2023-02-04T02:09:02.373Z,3.90
2023-02-04T02:11:29.443Z,3.15
2023-02-04T02:13:56.258Z,3.10
2023-02-04T02:16:23.285Z,3.42
2023-02-04T02:18:50.730Z,3.60
2023-02-04T02:21:22.205Z,3.63
2023-02-04T02:23:53.899Z,3.95
2023-02-04T02:26:22.240Z,3.08
2023-02-04T02:28:49.566Z,3.42
2023-02-04T02:31:18.594Z,4.07
2023-02-04T02:33:45.686Z,2.92
2023-02-04T02:36:13.303Z,3.63
2023-02-04T02:38:40.224Z,3.95
2023-02-04T02:41:08.252Z,3.97
2023-02-04T02:43:36.506Z,3.30
2023-02-04T02:46:05.188Z,3.63
2023-02-04T02:48:32.598Z,3.88
2023-02-04T02:50:59.246Z,3.13
2023-02-04T02:53:25.835Z,4.60
2023-02-04T02:55:53.054Z,4.18
2023-02-04T02:58:27.965Z,3.60
2023-02-04T03:00:56.924Z,4.45
2023-02-04T03:03:27.128Z,3.38
2023-02-04T03:05:59.355Z,3.17
2023-02-04T03:08:26.533Z,3.75
2023-02-04T03:10:53.349Z,4.55
2023-02-04T03:13:20.923Z,3.40
2023-02-04T03:15:48.964Z,4.00
2023-02-04T03:18:18.811Z,3.78
2023-02-04T03:20:45.890Z,3.47
2023-02-04T03:23:12.822Z,3.30
2023-02-04T03:25:41.460Z,3.88
2023-02-04T03:28:09.155Z,2.88
2023-02-04T03:30:36.467Z,4.07
2023-02-04T03:33:04.589Z,3.88
2023-02-04T03:35:31.122Z,3.65
2023-02-04T03:37:57.628Z,3.03
2023-02-04T03:40:24.137Z,2.72
2023-02-04T03:42:50.661Z,3.22
2023-02-04T03:45:17.271Z,2.67
2023-02-04T03:47:43.786Z,3.50
2023-02-04T03:50:11.640Z,3.10
2023-02-04T03:52:38.190Z,3.63
2023-02-04T03:55:05.136Z,3.28
2023-02-04T03:57:31.834Z,2.97
2023-02-04T03:59:58.502Z,3.55
2023-02-04T04:02:25.176Z,3.08
2023-02-04T04:04:51.761Z,3.38
2023-02-04T04:07:19.898Z,3.67
2023-02-04T04:09:46.412Z,4.22
2023-02-04T04:12:12.964Z,2.70
2023-02-04T04:14:39.487Z,2.83
2023-02-04T04:17:06.039Z,4.03
2023-02-04T04:19:32.598Z,3.22
2023-02-04T04:21:59.170Z,3.80
2023-02-04T04:24:27.087Z,3.75
2023-02-04T04:26:53.772Z,3.17
2023-02-04T04:29:20.540Z,4.07
2023-02-04T04:31:47.193Z,2.97
2023-02-04T04:34:14.069Z,3.35
2023-02-04T04:36:40.654Z,3.40
2023-02-04T04:39:07.148Z,4.00
2023-02-04T04:41:35.130Z,3.10
2023-02-04T04:44:02.089Z,3.13
2023-02-04T04:46:28.709Z,3.33
2023-02-04T04:48:55.255Z,3.40
2023-02-04T04:51:21.855Z,3.33
2023-02-04T04:53:48.408Z,2.90
2023-02-04T04:56:14.985Z,3.60
2023-02-04T04:58:42.883Z,3.08
2023-02-04T05:01:09.459Z,2.65
2023-02-04T05:03:36.057Z,2.53
2023-02-04T05:06:02.763Z,4.40
2023-02-04T05:08:29.302Z,2.58
2023-02-04T05:10:55.866Z,4.20
2023-02-04T05:13:22.368Z,2.78
2023-02-04T05:15:50.228Z,2.70
2023-02-04T05:18:17.030Z,2.58
2023-02-04T05:20:43.557Z,3.13
2023-02-04T05:23:10.094Z,2.92
2023-02-04T05:25:36.663Z,3.28
2023-02-04T05:28:03.519Z,2.88
2023-02-04T05:30:30.228Z,3.65
2023-02-04T05:32:58.549Z,3.17
2023-02-04T05:35:25.090Z,2.90
2023-02-04T05:37:51.632Z,3.00
2023-02-04T05:40:18.492Z,2.55
2023-02-04T05:42:45.016Z,2.90
2023-02-04T05:45:15.078Z,3.15
2023-02-04T05:47:41.814Z,3.70
2023-02-04T05:50:10.841Z,3.53
2023-02-04T05:52:37.427Z,3.70
2023-02-04T05:55:04.908Z,4.70
2023-02-04T05:57:31.427Z,2.97
2023-02-04T05:59:58.197Z,3.20
2023-02-04T06:02:24.852Z,2.75
2023-02-04T06:04:51.363Z,3.33
2023-02-04T06:07:19.242Z,2.85
2023-02-04T06:09:45.775Z,3.60
2023-02-04T06:12:12.449Z,3.63
2023-02-04T06:14:39.213Z,3.47
2023-02-04T06:17:05.763Z,3.35
2023-02-04T06:19:32.301Z,3.92
2023-02-04T06:21:58.831Z,3.13
2023-02-04T06:24:26.758Z,3.60
2023-02-04T06:26:53.316Z,4.15
2023-02-04T06:29:19.870Z,3.53
2023-02-04T06:31:46.636Z,3.22
2023-02-04T06:34:13.182Z,3.30
2023-02-04T06:36:39.935Z,4.28
2023-02-04T06:39:06.619Z,3.30
2023-02-04T06:41:34.529Z,3.78
2023-02-04T06:44:01.181Z,4.30
2023-02-04T06:46:27.772Z,4.57
2023-02-04T06:48:54.367Z,4.68
2023-02-04T06:51:20.901Z,5.32
2023-02-04T06:53:47.748Z,5.20
2023-02-04T06:56:14.264Z,5.00
2023-02-04T06:58:42.106Z,5.78
2023-02-04T07:01:08.915Z,4.82
2023-02-04T07:03:35.446Z,6.53
2023-02-04T07:06:01.978Z,6.00
2023-02-04T07:08:28.565Z,5.05
2023-02-04T07:10:55.109Z,4.78
2023-02-04T07:13:21.613Z,5.97
2023-02-04T07:15:49.552Z,6.47
2023-02-04T07:18:16.188Z,5.63
2023-02-04T07:20:42.737Z,5.95
2023-02-04T07:23:09.253Z,5.50
2023-02-04T07:25:35.783Z,5.78
2023-02-04T07:28:02.376Z,5.72
2023-02-04T07:30:29.362Z,5.80
2023-02-04T07:32:57.521Z,6.25
2023-02-04T07:35:24.099Z,5.88
2023-02-04T07:37:52.772Z,6.72
2023-02-04T07:40:19.297Z,5.25
2023-02-04T07:42:45.819Z,6.53
2023-02-04T07:45:17.130Z,5.77
2023-02-04T07:47:43.915Z,5.47
2023-02-04T07:50:11.848Z,5.80
2023-02-04T07:52:38.469Z,5.78
2023-02-04T07:55:05.841Z,7.28
2023-02-04T07:57:32.507Z,10.90
2023-02-04T07:59:59.055Z,7.38
2023-02-04T08:02:26.158Z,7.60
2023-02-04T08:04:53.084Z,9.45
2023-02-04T08:07:21.073Z,12.43
2023-02-04T08:09:48.347Z,11.18
2023-02-04T08:12:14.936Z,11.25
2023-02-04T08:14:41.458Z,7.50
2023-02-04T08:17:08.061Z,7.10
2023-02-04T08:19:34.599Z,8.80
2023-02-04T08:22:01.285Z,6.80
2023-02-04T08:24:29.184Z,9.68
2023-02-04T08:26:55.894Z,7.70
2023-02-04T08:29:22.484Z,9.13
2023-02-04T08:31:49.168Z,8.90
2023-02-04T08:34:15.843Z,10.52
2023-02-04T08:36:42.710Z,10.93
2023-02-04T08:39:09.228Z,10.13
2023-02-04T08:41:37.265Z,7.93
2023-02-04T08:44:04.313Z,7.07
2023-02-04T08:46:31.282Z,6.55
2023-02-04T08:48:57.961Z,6.53
2023-02-04T08:51:24.670Z,7.03
2023-02-04T08:53:51.231Z,6.90
2023-02-04T08:56:17.877Z,7.00
2023-02-04T08:58:46.285Z,6.78
2023-02-04T09:01:13.130Z,6.78
2023-02-04T09:03:39.907Z,6.97
2023-02-04T09:06:07.203Z,6.35
2023-02-04T09:08:33.814Z,6.80
2023-02-04T09:11:00.407Z,7.20
2023-02-04T09:13:28.216Z,8.10
2023-02-04T09:15:56.278Z,6.93
2023-02-04T09:18:23.084Z,6.68
2023-02-04T09:20:50.337Z,6.43
2023-02-04T09:23:17.174Z,6.43
2023-02-04T09:25:45.267Z,7.22
2023-02-04T09:28:13.320Z,6.32
2023-02-04T09:30:41.210Z,8.50
2023-02-04T09:33:11.038Z,7.13
2023-02-04T09:35:38.039Z,7.28
2023-02-04T09:38:05.050Z,5.50
2023-02-04T09:40:34.398Z,5.53
2023-02-04T09:43:02.919Z,6.65
2023-02-04T09:45:33.248Z,5.70
2023-02-04T09:48:02.555Z,6.30
2023-02-04T09:50:31.918Z,7.20
2023-02-04T09:53:01.742Z,7.10
2023-02-04T09:55:31.792Z,6.00
2023-02-04T09:57:58.299Z,5.95
2023-02-04T10:00:27.081Z,6.50
2023-02-04T10:02:53.847Z,5.38
2023-02-04T10:05:27.182Z,6.85
2023-02-04T10:07:55.296Z,6.63
2023-02-04T10:10:24.486Z,5.97
2023-02-04T10:12:53.243Z,7.05
2023-02-04T10:15:21.293Z,6.90
2023-02-04T10:17:50.490Z,6.78
2023-02-04T10:20:23.533Z,6.68
2023-02-04T10:22:53.342Z,7.05
2023-02-04T10:25:23.716Z,6.65
2023-02-04T10:27:52.128Z,6.25
2023-02-04T10:30:21.160Z,6.32
2023-02-04T10:32:48.270Z,7.47
2023-02-04T10:35:16.724Z,6.38
2023-02-04T10:37:43.712Z,5.68
2023-02-04T10:40:27.954Z,5.38
2023-02-04T10:42:54.664Z,7.22
2023-02-04T10:45:23.079Z,5.10
2023-02-04T10:47:51.556Z,6.45
2023-02-04T10:50:19.731Z,6.57
2023-02-04T10:52:50.011Z,5.95
2023-02-04T10:55:18.557Z,6.78
2023-02-04T10:57:48.721Z,7.07
2023-02-04T11:00:17.937Z,7.30
2023-02-04T11:02:48.088Z,7.45
2023-02-04T11:05:17.845Z,7.43
2023-02-04T11:07:45.211Z,6.40
2023-02-04T11:10:14.763Z,6.85
2023-02-04T11:12:43.047Z,6.40
2023-02-04T11:15:39.015Z,5.90
2023-02-04T11:18:08.208Z,6.63
2023-02-04T11:20:35.528Z,7.57
2023-02-04T11:23:29.245Z,6.30
2023-02-04T11:26:03.464Z,7.03
2023-02-04T11:28:44.528Z,7.05
2023-02-04T11:31:27.828Z,7.00
2023-02-04T11:34:24.270Z,5.45
2023-02-04T11:36:55.785Z,6.55
2023-02-04T11:39:26.862Z,7.53
2023-02-04T11:41:53.712Z,6.30
2023-02-04T11:44:20.508Z,6.03
2023-02-04T11:46:52.045Z,5.05
2023-02-04T11:49:20.362Z,5.32
2023-02-04T11:51:47.058Z,5.35
2023-02-04T11:54:15.100Z,4.47
2023-02-04T11:56:42.071Z,4.97
2023-02-04T11:59:11.126Z,4.55
2023-02-04T12:01:37.676Z,4.80
2023-02-04T12:04:08.078Z,5.72
2023-02-04T12:06:37.158Z,4.90
2023-02-04T12:09:07.491Z,4.95
2023-02-04T12:11:34.082Z,4.90
2023-02-04T12:14:08.222Z,5.10
2023-02-04T12:16:40.562Z,4.70
2023-02-04T12:19:08.623Z,5.13
2023-02-04T12:21:35.204Z,4.75
2023-02-04T12:24:01.803Z,4.40
2023-02-04T12:26:28.327Z,4.63
2023-02-04T12:28:54.881Z,4.38
2023-02-04T12:31:21.497Z,4.05
2023-02-04T12:33:48.273Z,4.60
2023-02-04T12:36:16.170Z,5.05
2023-02-04T12:38:42.739Z,5.40
2023-02-04T12:41:09.853Z,4.82
2023-02-04T12:43:36.485Z,5.63
2023-02-04T12:46:03.178Z,6.03
2023-02-04T12:48:30.214Z,5.30
2023-02-04T12:50:56.857Z,5.18
2023-02-04T12:53:24.820Z,7.10
2023-02-04T12:55:51.495Z,5.82
2023-02-04T12:58:18.117Z,4.80
2023-02-04T13:00:44.689Z,5.22
2023-02-04T13:03:11.361Z,5.03
2023-02-04T13:05:37.885Z,4.15
2023-02-04T13:08:04.962Z,4.10
2023-02-04T13:10:32.846Z,4.55
2023-02-04T13:12:59.540Z,4.25
2023-02-04T13:15:26.207Z,5.05
2023-02-04T13:17:53.307Z,4.03
2023-02-04T13:20:20.096Z,4.10
2023-02-04T13:22:46.717Z,4.10
2023-02-04T13:25:13.313Z,5.00
2023-02-04T13:27:41.325Z,4.32
2023-02-04T13:30:09.337Z,3.58
2023-02-04T13:32:35.980Z,3.70
2023-02-04T13:35:02.763Z,4.18
2023-02-04T13:37:29.351Z,3.72
2023-02-04T13:39:55.909Z,4.18
2023-02-04T13:42:22.524Z,4.82
2023-02-04T13:44:50.380Z,4.78
2023-02-04T13:47:17.079Z,4.63
2023-02-04T13:49:43.603Z,5.50
2023-02-04T13:52:10.160Z,5.00
2023-02-04T13:54:36.872Z,5.20
2023-02-04T13:57:03.569Z,4.90
2023-02-04T13:59:30.073Z,4.80
2023-02-04T14:01:58.814Z,5.75
2023-02-04T14:04:25.427Z,5.57
2023-02-04T14:06:52.000Z,5.63
2023-02-04T14:09:18.522Z,5.30
2023-02-04T14:11:45.104Z,5.38
2023-02-04T14:14:11.612Z,4.97
2023-02-04T14:16:38.206Z,5.25
2023-02-04T14:19:06.487Z,5.10
2023-02-04T14:21:33.174Z,5.88
2023-02-04T14:23:59.987Z,5.30
2023-02-04T14:26:26.650Z,5.30
2023-02-04T14:28:53.180Z,5.22
2023-02-04T14:31:19.881Z,5.45
2023-02-04T14:33:48.039Z,4.82
2023-02-04T14:36:17.251Z,4.82
2023-02-04T14:38:43.807Z,4.95
2023-02-04T14:41:10.460Z,4.88
2023-02-04T14:43:37.010Z,5.68
2023-02-04T14:46:05.604Z,4.78
2023-02-04T14:48:32.667Z,5.25
2023-02-04T14:50:59.285Z,5.50
2023-02-04T14:53:27.180Z,4.65
2023-02-04T14:55:54.057Z,5.38
2023-02-04T14:58:20.561Z,5.50
2023-02-04T15:00:47.475Z,4.45
2023-02-04T15:03:13.978Z,5.93
2023-02-04T15:05:40.532Z,4.90
2023-02-04T15:08:07.086Z,4.75
2023-02-04T15:10:35.393Z,5.13
2023-02-04T15:13:02.180Z,4.68
2023-02-04T15:15:28.759Z,6.20
2023-02-04T15:17:55.301Z,6.30
2023-02-04T15:20:22.166Z,5.45
2023-02-04T15:22:48.718Z,5.75
2023-02-04T15:25:15.474Z,5.03
2023-02-04T15:27:43.397Z,4.25
2023-02-04T15:30:10.930Z,6.10
2023-02-04T15:32:37.412Z,5.50
2023-02-04T15:35:04.609Z,4.85
2023-02-04T15:37:31.440Z,4.63
2023-02-04T15:39:58.137Z,4.72
2023-02-04T15:42:24.807Z,5.10
2023-02-04T15:44:52.793Z,5.40
2023-02-04T15:47:19.285Z,4.53
2023-02-04T15:49:46.152Z,5.00
2023-02-04T15:52:24.112Z,5.45
2023-02-04T15:54:52.318Z,5.53
2023-02-04T15:57:18.969Z,5.93
2023-02-04T15:59:45.536Z,6.55
2023-02-04T16:02:15.785Z,5.95
2023-02-04T16:04:42.430Z,6.03
2023-02-04T16:07:08.921Z,6.32
2023-02-04T16:09:35.760Z,5.20
2023-02-04T16:12:03.057Z,5.40
2023-02-04T16:14:29.719Z,5.28
2023-02-04T16:16:56.320Z,6.22
2023-02-04T16:19:24.268Z,5.63
2023-02-04T16:21:50.733Z,5.22
2023-02-04T16:24:17.260Z,6.05
2023-02-04T16:26:43.828Z,6.57
2023-02-04T16:29:10.401Z,5.30
2023-02-04T16:31:36.913Z,5.00
2023-02-04T16:34:03.964Z,8.38
2023-02-04T16:36:31.834Z,9.00
2023-02-04T16:38:59.933Z,8.63
2023-02-04T16:41:26.499Z,7.57
2023-02-04T16:43:53.091Z,7.40
2023-02-04T16:46:19.622Z,7.22
2023-02-04T16:48:46.451Z,7.40
2023-02-04T16:51:15.804Z,6.28
2023-02-04T16:53:43.724Z,12.85
2023-02-04T16:56:10.615Z,9.40
2023-02-04T16:58:37.366Z,9.35
2023-02-04T17:01:04.103Z,10.38
2023-02-04T17:03:30.737Z,9.23
2023-02-04T17:05:57.661Z,10.70
2023-02-04T17:08:24.510Z,9.55
2023-02-04T17:10:52.541Z,9.13
2023-02-04T17:13:19.390Z,7.22
2023-02-04T17:15:45.920Z,6.82
2023-02-04T17:18:12.953Z,8.35
2023-02-04T17:20:39.463Z,10.05
2023-02-04T17:23:06.055Z,12.45
2023-02-04T17:25:32.879Z,10.75
2023-02-04T17:28:01.005Z,7.28
2023-02-04T17:30:27.704Z,5.43
2023-02-04T17:32:54.370Z,7.47
2023-02-04T17:35:20.926Z,6.82
2023-02-04T17:37:47.505Z,5.18
2023-02-04T17:40:14.039Z,5.30
2023-02-04T17:42:41.525Z,5.28
2023-02-04T17:45:11.075Z,5.60
2023-02-04T17:47:38.415Z,5.93
2023-02-04T17:50:07.438Z,7.60
2023-02-04T17:52:34.445Z,6.53
2023-02-04T17:55:01.346Z,7.32
2023-02-04T17:57:28.238Z,6.57
2023-02-04T17:59:54.723Z,6.45
2023-02-04T18:02:26.437Z,7.03
2023-02-04T18:04:55.088Z,6.75
2023-02-04T18:07:22.564Z,6.95
2023-02-04T18:09:49.163Z,7.50
2023-02-04T18:12:18.902Z,6.75
2023-02-04T18:14:45.622Z,7.93
2023-02-04T18:17:14.683Z,6.88
2023-02-04T18:19:43.288Z,7.85
2023-02-04T18:22:11.696Z,6.05
2023-02-04T18:24:39.816Z,6.65
2023-02-04T18:27:16.069Z,7.75
2023-02-04T18:29:45.071Z,8.30
2023-02-04T18:32:18.863Z,6.65
2023-02-04T18:34:49.910Z,7.22
2023-02-04T18:37:25.886Z,6.53
2023-02-04T18:39:53.406Z,6.28
2023-02-04T18:42:24.850Z,7.35
2023-02-04T18:44:51.667Z,6.53
2023-02-04T18:47:27.593Z,7.63
2023-02-04T18:49:55.920Z,7.22
2023-02-04T18:52:22.755Z,7.95
2023-02-04T18:54:51.165Z,7.60
2023-02-04T18:57:35.508Z,7.00
2023-02-04T19:00:28.393Z,7.15
2023-02-04T19:02:57.609Z,7.43
2023-02-04T19:05:36.192Z,6.68
2023-02-04T19:08:20.741Z,7.57
2023-02-04T19:10:47.742Z,7.32
2023-02-04T19:13:18.831Z,8.90
2023-02-04T19:15:54.169Z,8.07
2023-02-04T19:18:25.150Z,7.90
2023-02-04T19:20:53.115Z,9.03
2023-02-04T19:23:21.974Z,8.75
2023-02-04T19:25:50.025Z,9.15
2023-02-04T19:28:26.401Z,8.85
2023-02-04T19:30:58.491Z,9.35
2023-02-04T19:33:27.792Z,9.25
2023-02-04T19:35:55.638Z,8.52
2023-02-04T19:38:36.588Z,8.48
2023-02-04T19:41:18.566Z,9.52
2023-02-04T19:43:45.132Z,9.48
2023-02-04T19:46:20.808Z,8.00
2023-02-04T19:48:47.501Z,8.68
2023-02-04T19:51:31.784Z,8.90
2023-02-04T19:54:10.527Z,9.15
2023-02-04T19:56:39.569Z,8.57
2023-02-04T19:59:22.076Z,9.15
2023-02-04T20:01:48.871Z,8.75
2023-02-04T20:04:19.289Z,8.77
2023-02-04T20:06:48.113Z,8.50
2023-02-04T20:09:17.158Z,8.30
2023-02-04T20:12:08.562Z,8.32
2023-02-04T20:14:47.406Z,8.63
2023-02-04T20:17:39.152Z,8.07
2023-02-04T20:20:23.842Z,8.63
2023-02-04T20:22:54.905Z,8.70
2023-02-04T20:25:43.437Z,7.93
2023-02-04T20:28:16.305Z,8.27
2023-02-04T20:30:43.195Z,7.70
2023-02-04T20:33:22.865Z,10.18
2023-02-04T20:36:25.162Z,8.82
2023-02-04T20:39:13.500Z,9.63
2023-02-04T20:41:40.190Z,8.80
2023-02-04T20:44:15.068Z,10.15
2023-02-04T20:46:41.725Z,8.60
2023-02-04T20:49:21.790Z,9.45
2023-02-04T20:51:48.544Z,8.57
2023-02-04T20:54:17.976Z,8.82
2023-02-04T20:56:44.698Z,9.63
2023-02-04T20:59:26.824Z,8.80
2023-02-04T21:01:53.415Z,8.10
2023-02-04T21:04:24.423Z,9.05
2023-02-04T21:06:52.990Z,9.77
2023-02-04T21:09:24.364Z,9.57
2023-02-04T21:11:51.277Z,9.35
2023-02-04T21:14:17.900Z,8.75
2023-02-04T21:16:44.565Z,8.27
2023-02-04T21:19:11.147Z,8.77
2023-02-04T21:21:37.836Z,9.18
2023-02-04T21:24:05.282Z,9.15
2023-02-04T21:26:33.392Z,9.05
2023-02-04T21:29:00.193Z,8.90
2023-02-04T21:31:26.916Z,9.40
2023-02-04T21:33:53.435Z,9.32
2023-02-04T21:36:20.002Z,9.77
2023-02-04T21:38:46.557Z,9.60
2023-02-04T21:41:13.690Z,10.27
2023-02-04T21:43:41.845Z,9.57
2023-02-04T21:46:08.500Z,10.02
2023-02-04T21:48:35.261Z,10.88
2023-02-04T21:51:01.870Z,9.35
2023-02-04T21:53:28.395Z,10.40
2023-02-04T21:55:54.965Z,9.93
2023-02-04T21:58:21.463Z,10.38
2023-02-04T22:00:49.533Z,10.45
2023-02-04T22:03:16.108Z,9.95
2023-02-04T22:05:43.240Z,10.10
2023-02-04T22:08:10.480Z,10.73
2023-02-04T22:10:37.375Z,11.05
2023-02-04T22:13:04.247Z,10.05
2023-02-04T22:15:31.026Z,10.65
2023-02-04T22:17:59.112Z,9.82
2023-02-04T22:20:25.895Z,10.02
2023-02-04T22:22:52.717Z,10.52
2023-02-04T22:25:20.993Z,10.55
2023-02-04T22:27:47.645Z,9.65
2023-02-04T22:30:16.192Z,10.20
2023-02-04T22:32:43.026Z,9.90
2023-02-04T22:35:11.873Z,9.18
2023-02-04T22:37:40.371Z,9.98
2023-02-04T22:40:08.769Z,10.15
2023-02-04T22:42:35.288Z,10.13
2023-02-04T22:45:02.217Z,10.82
2023-02-04T22:47:29.021Z,10.15
2023-02-04T22:49:55.578Z,10.82
2023-02-04T22:52:23.445Z,10.52
2023-02-04T22:54:50.082Z,10.43
2023-02-04T22:57:16.572Z,10.48
2023-02-04T22:59:43.424Z,10.75
2023-02-04T23:02:10.087Z,10.45
2023-02-04T23:04:36.697Z,11.13
2023-02-04T23:07:03.366Z,11.60
2023-02-04T23:09:31.588Z,10.48
2023-02-04T23:11:58.614Z,11.00
2023-02-04T23:14:25.271Z,10.95
2023-02-04T23:16:52.009Z,11.75
2023-02-04T23:19:18.803Z,10.65
2023-02-04T23:21:45.331Z,10.88
2023-02-04T23:24:12.250Z,10.63
2023-02-04T23:26:40.464Z,10.20
2023-02-04T23:29:07.087Z,11.10
2023-02-04T23:31:33.608Z,10.13
2023-02-04T23:34:00.268Z,10.50
2023-02-04T23:36:26.860Z,10.38
2023-02-04T23:38:53.770Z,11.75
2023-02-04T23:41:20.338Z,10.50
2023-02-04T23:43:48.287Z,13.63
2023-02-04T23:46:14.847Z,11.65
2023-02-04T23:48:41.511Z,10.63
2023-02-04T23:51:08.428Z,10.68
2023-02-04T23:53:35.283Z,11.73
2023-02-04T23:56:01.915Z,11.60
2023-02-04T23:58:28.599Z,10.45
